Hollister, Wisconsin
Current Conditions -  °F | °C
As of 10:15 PM on Friday 31 Oct 2014 (Local Time) from KAIG Reporting Station
Broken Clouds Broken Clouds  
Wind Chill: 19°   Ceiling: 3000
Heat Index: 27°   Visibility: 10mi
Dew Point: 20°   Wind: 8mph
Humidity: 73%   Direction: 360°N
Pressure: 30.44"   Gusts: NA
Location:  45.261°N, 88.731°W
Report Text: KAIG 010315Z AUTO 36007KT 10SM BKN030 M03/M07 A3044 RMK AO2 T10261068
Loading
Personal Weather Stations






























Interactive Weather Map New forecast layout! Learn more

10-Day Weather Forecast

Advertisements
Track Severe Weather on mobile